createdAt,value
2023-04-21T00:02:25.904Z,9.80
2023-04-21T00:04:56.588Z,9.90
2023-04-21T00:07:24.924Z,10.00
2023-04-21T00:09:53.065Z,9.90
2023-04-21T00:12:21.435Z,9.90
2023-04-21T00:14:49.521Z,9.90
2023-04-21T00:17:17.708Z,10.10
2023-04-21T00:19:45.968Z,9.90
2023-04-21T00:22:15.820Z,9.90
2023-04-21T00:24:43.919Z,9.90
2023-04-21T00:27:13.429Z,9.80
2023-04-21T00:29:41.586Z,9.80
2023-04-21T00:32:11.075Z,9.80
2023-04-21T00:34:39.283Z,9.80
2023-04-21T00:37:07.521Z,9.70
2023-04-21T00:39:37.049Z,9.80
2023-04-21T00:42:05.567Z,9.70
2023-04-21T00:44:33.780Z,9.70
2023-04-21T00:47:02.191Z,9.70
2023-04-21T00:49:30.606Z,9.70
2023-04-21T00:51:59.708Z,9.60
2023-04-21T00:54:28.900Z,9.60
2023-04-21T00:57:00.533Z,9.60
2023-04-21T00:59:30.584Z,9.50
2023-04-21T01:01:59.085Z,9.30
2023-04-21T01:04:27.458Z,9.40
2023-04-21T01:06:55.654Z,9.40
2023-04-21T01:09:24.773Z,9.20
2023-04-21T01:12:04.445Z,9.20
2023-04-21T01:14:35.682Z,9.20
2023-04-21T01:17:06.303Z,9.30
2023-04-21T01:19:39.420Z,9.20
2023-04-21T01:22:11.297Z,9.20
2023-04-21T01:24:41.145Z,9.20
2023-04-21T01:27:13.763Z,9.10
2023-04-21T01:29:43.674Z,9.10
2023-04-21T01:32:14.768Z,9.20
2023-04-21T01:34:43.820Z,9.20
2023-04-21T01:37:14.503Z,9.10
2023-04-21T01:39:44.023Z,9.00
2023-04-21T01:42:13.388Z,8.90
2023-04-21T01:44:41.758Z,8.90
2023-04-21T01:47:11.513Z,9.00
2023-04-21T01:49:41.055Z,8.90
2023-04-21T01:52:09.255Z,8.90
2023-04-21T01:54:38.906Z,8.80
2023-04-21T01:57:07.521Z,8.80
2023-04-21T02:02:04.571Z,8.80
2023-04-21T02:04:35.461Z,8.90
2023-04-21T02:07:04.048Z,8.70
2023-04-21T02:09:34.041Z,8.70
2023-04-21T02:12:03.795Z,8.40
2023-04-21T02:14:31.896Z,8.50
2023-04-21T02:17:00.626Z,8.50
2023-04-21T02:24:27.199Z,8.50
2023-04-21T02:26:55.453Z,8.40
2023-04-21T02:29:24.974Z,8.50
2023-04-21T02:32:01.236Z,8.40
2023-04-21T02:34:31.804Z,8.30
2023-04-21T02:37:00.347Z,8.30
2023-04-21T02:39:28.634Z,8.30
2023-04-21T02:41:56.918Z,8.40
2023-04-21T02:44:26.538Z,8.40
2023-04-21T02:46:54.698Z,8.20
2023-04-21T02:49:22.935Z,8.20
2023-04-21T02:51:51.646Z,8.30
2023-04-21T02:54:19.941Z,8.30
2023-04-21T02:56:49.548Z,8.20
2023-04-21T02:59:18.154Z,8.30
2023-04-21T03:01:49.270Z,8.30
2023-04-21T03:04:17.709Z,8.10
2023-04-21T03:06:46.117Z,8.10
2023-04-21T03:09:14.412Z,8.20
2023-04-21T03:11:42.654Z,8.00
2023-04-21T03:14:10.895Z,8.00
2023-04-21T03:16:39.059Z,8.00
2023-04-21T03:19:09.598Z,8.00
2023-04-21T03:21:39.409Z,8.10
2023-04-21T03:24:08.453Z,7.90
2023-04-21T03:26:36.913Z,8.10
2023-04-21T03:29:05.330Z,8.10
2023-04-21T03:31:33.718Z,8.00
2023-04-21T03:34:02.202Z,7.90
2023-04-21T03:36:32.332Z,8.00
2023-04-21T03:39:12.818Z,7.90
2023-04-21T03:41:48.340Z,8.00
2023-04-21T03:44:16.623Z,7.80
2023-04-21T03:46:44.879Z,7.90
2023-04-21T03:49:12.980Z,8.00
2023-04-21T03:51:42.508Z,8.00
2023-04-21T03:54:10.594Z,8.00
2023-04-21T03:56:38.846Z,8.00
2023-04-21T03:59:07.215Z,8.00
2023-04-21T04:01:35.803Z,8.00
2023-04-21T04:04:04.217Z,8.00
2023-04-21T04:06:33.227Z,8.00
2023-04-21T04:09:04.683Z,8.00
2023-04-21T04:11:32.989Z,8.10
2023-04-21T04:14:01.208Z,8.10
2023-04-21T04:16:30.009Z,8.10
2023-04-21T04:18:58.229Z,8.30
2023-04-21T04:21:27.562Z,8.30
2023-04-21T04:23:57.729Z,8.30
2023-04-21T04:26:28.398Z,8.20
2023-04-21T04:28:57.220Z,8.20
2023-04-21T04:33:55.479Z,8.30
2023-04-21T04:36:24.182Z,8.40
2023-04-21T04:38:52.639Z,8.60
2023-04-21T04:41:21.046Z,8.30
2023-04-21T04:43:51.183Z,8.40
2023-04-21T04:46:20.926Z,8.50
2023-04-21T04:48:49.388Z,8.50
2023-04-21T04:51:17.531Z,8.50
2023-04-21T04:53:45.887Z,8.80
2023-04-21T04:56:14.010Z,8.50
2023-04-21T04:58:42.211Z,8.70
2023-04-21T05:01:16.054Z,8.90
2023-04-21T05:03:45.161Z,8.80
2023-04-21T05:06:14.112Z,8.90
2023-04-21T05:08:42.517Z,9.00
2023-04-21T05:11:10.633Z,9.00
2023-04-21T05:13:40.209Z,9.10
2023-04-21T05:16:10.239Z,9.20
2023-04-21T05:18:39.996Z,9.10
2023-04-21T05:21:08.358Z,9.20
2023-04-21T05:23:36.734Z,9.20
2023-04-21T05:26:05.163Z,9.30
2023-04-21T05:31:04.211Z,9.40
2023-04-21T05:33:32.521Z,9.50
2023-04-21T05:36:01.981Z,9.50
2023-04-21T05:40:58.688Z,9.70
2023-04-21T05:43:26.877Z,9.80
2023-04-21T05:45:55.164Z,9.90
2023-04-21T05:48:24.538Z,9.90
2023-04-21T05:53:23.891Z,10.00
2023-04-21T05:55:52.057Z,10.10
2023-04-21T05:58:20.204Z,10.20
2023-04-21T06:00:49.251Z,10.30
2023-04-21T06:05:47.492Z,10.50
2023-04-21T06:08:15.828Z,10.70
2023-04-21T06:10:45.334Z,10.70
2023-04-21T06:13:13.504Z,10.70
2023-04-21T06:20:40.927Z,11.10
2023-04-21T06:23:09.870Z,11.10
2023-04-21T06:25:38.034Z,11.30
2023-04-21T06:28:07.633Z,11.50
2023-04-21T06:30:36.272Z,11.50
2023-04-21T06:33:06.852Z,11.70
2023-04-21T06:35:35.137Z,11.70
2023-04-21T06:38:03.502Z,11.90
2023-04-21T06:40:31.741Z,11.90
2023-04-21T06:42:59.853Z,12.00
2023-04-21T06:45:29.447Z,12.20
2023-04-21T06:47:57.541Z,12.10
2023-04-21T06:50:25.777Z,12.30
2023-04-21T06:52:53.910Z,12.50
2023-04-21T06:55:22.354Z,12.60
2023-04-21T07:00:19.640Z,12.70
2023-04-21T07:02:49.387Z,12.90
2023-04-21T07:05:17.877Z,12.90
2023-04-21T07:15:16.035Z,13.30
2023-04-21T07:17:44.396Z,13.40
2023-04-21T07:20:14.216Z,13.60
2023-04-21T07:22:42.397Z,13.60
2023-04-21T07:25:13.397Z,13.70
2023-04-21T07:27:41.737Z,13.50
2023-04-21T07:30:10.509Z,13.80
2023-04-21T07:35:08.281Z,14.00
2023-04-21T07:37:37.863Z,14.10
2023-04-21T07:40:06.981Z,14.20
2023-04-21T07:42:35.245Z,14.20
2023-04-21T07:45:03.397Z,14.30
2023-04-21T07:47:31.928Z,14.40
2023-04-21T07:50:00.255Z,14.30
2023-04-21T07:52:28.528Z,14.40
2023-04-21T07:54:58.229Z,14.60
2023-04-21T07:57:26.429Z,14.70
2023-04-21T07:59:54.600Z,14.90
2023-04-21T08:02:23.617Z,15.00
2023-04-21T08:04:52.190Z,15.00
2023-04-21T08:07:20.584Z,15.10
2023-04-21T08:09:48.897Z,15.40
2023-04-21T08:12:18.613Z,15.30
2023-04-21T08:14:46.825Z,15.50
2023-04-21T08:17:15.106Z,15.70
2023-04-21T08:19:43.428Z,15.70
2023-04-21T08:24:40.113Z,15.60
2023-04-21T08:27:08.376Z,15.70
2023-04-21T08:29:37.997Z,15.70
2023-04-21T08:32:06.677Z,15.90
2023-04-21T08:34:35.218Z,15.90
2023-04-21T08:37:03.500Z,16.00
2023-04-21T08:39:31.580Z,16.10
2023-04-21T08:42:01.691Z,16.10
2023-04-21T08:44:29.796Z,16.20
2023-04-21T08:47:00.706Z,16.40
2023-04-21T08:49:31.802Z,16.30
2023-04-21T08:52:01.681Z,16.40
2023-04-21T08:54:30.270Z,16.20
2023-04-21T08:57:08.031Z,16.20
2023-04-21T08:59:40.368Z,16.40
2023-04-21T09:02:12.012Z,16.60
2023-04-21T09:04:41.266Z,16.50
2023-04-21T09:07:10.146Z,16.40
2023-04-21T09:09:54.432Z,16.40
2023-04-21T09:12:22.729Z,16.60
2023-04-21T09:14:51.441Z,16.50
2023-04-21T09:17:23.976Z,16.60
2023-04-21T09:19:52.314Z,16.60
2023-04-21T09:22:20.621Z,16.60
2023-04-21T09:24:58.457Z,16.60
2023-04-21T09:27:26.664Z,16.50
2023-04-21T09:29:54.801Z,16.60
2023-04-21T09:32:24.457Z,16.70
2023-04-21T09:34:52.611Z,16.60
2023-04-21T09:37:24.336Z,16.70
2023-04-21T09:40:04.117Z,16.70
2023-04-21T09:42:37.110Z,16.60
2023-04-21T09:45:29.055Z,17.00
2023-04-21T09:48:01.980Z,16.80
2023-04-21T09:53:05.130Z,16.70
2023-04-21T09:55:34.865Z,16.90
2023-04-21T09:58:05.473Z,17.00
2023-04-21T10:00:39.395Z,16.90
2023-04-21T10:03:12.276Z,17.10
2023-04-21T10:05:42.807Z,17.10
2023-04-21T10:08:12.645Z,17.20
2023-04-21T10:10:41.501Z,17.30
2023-04-21T10:13:15.940Z,17.40
2023-04-21T10:15:44.236Z,17.40
2023-04-21T10:18:18.609Z,17.20
2023-04-21T10:20:54.650Z,17.20
2023-04-21T10:23:30.413Z,17.20
2023-04-21T10:26:11.622Z,17.60
2023-04-21T10:28:48.222Z,17.30
2023-04-21T10:31:25.497Z,17.50
2023-04-21T10:34:23.830Z,17.60
2023-04-21T10:37:15.685Z,17.70
2023-04-21T10:39:55.002Z,17.50
2023-04-21T10:42:31.326Z,17.50
2023-04-21T10:45:11.269Z,17.40
2023-04-21T10:47:42.974Z,17.40
2023-04-21T10:50:21.176Z,17.20
2023-04-21T10:52:55.565Z,17.60
2023-04-21T10:55:27.097Z,17.50
2023-04-21T10:57:55.424Z,17.60
2023-04-21T11:00:25.518Z,17.50
2023-04-21T11:03:02.763Z,17.50
2023-04-21T11:05:36.437Z,17.20
2023-04-21T11:08:06.572Z,17.60
2023-04-21T11:10:55.056Z,17.90
2023-04-21T11:13:24.601Z,17.60
2023-04-21T11:16:06.004Z,17.70
2023-04-21T11:18:42.481Z,17.80
2023-04-21T11:21:17.766Z,17.80
2023-04-21T11:23:53.749Z,17.80
2023-04-21T11:26:32.605Z,17.80
2023-04-21T11:29:07.974Z,18.00
2023-04-21T11:31:37.562Z,18.10
2023-04-21T11:34:07.423Z,18.10
2023-04-21T11:36:38.571Z,18.20
2023-04-21T11:39:10.235Z,18.30
2023-04-21T11:41:41.218Z,18.30
2023-04-21T11:44:09.830Z,18.10
2023-04-21T11:46:38.363Z,18.20
2023-04-21T11:49:08.017Z,17.90
2023-04-21T11:51:39.126Z,18.20
2023-04-21T11:54:09.085Z,18.30
2023-04-21T11:56:38.719Z,18.40
2023-04-21T11:59:10.985Z,18.50
2023-04-21T12:01:44.681Z,18.60
2023-04-21T12:04:16.397Z,18.50
2023-04-21T12:06:46.889Z,18.60
2023-04-21T12:09:19.808Z,18.60
2023-04-21T12:11:50.158Z,18.40
2023-04-21T12:14:18.857Z,18.50
2023-04-21T12:16:51.643Z,18.50
2023-04-21T12:19:26.763Z,18.70
2023-04-21T12:21:57.513Z,18.70
2023-04-21T12:24:26.085Z,18.60
2023-04-21T12:26:54.731Z,18.60
2023-04-21T12:29:23.024Z,18.70
2023-04-21T12:31:51.178Z,18.50
2023-04-21T12:34:19.411Z,18.60
2023-04-21T12:36:47.998Z,18.70
2023-04-21T12:39:18.949Z,18.50
2023-04-21T12:41:47.670Z,18.50
2023-04-21T12:44:16.095Z,18.70
2023-04-21T12:46:44.320Z,18.80
2023-04-21T12:49:12.441Z,18.90
2023-04-21T12:51:40.662Z,18.90
2023-04-21T12:54:08.820Z,19.00
2023-04-21T12:56:39.717Z,18.90
2023-04-21T12:59:09.896Z,18.80
2023-04-21T13:01:38.309Z,18.60
2023-04-21T13:04:06.835Z,18.70
2023-04-21T13:06:35.314Z,18.80
2023-04-21T13:09:04.647Z,18.90
2023-04-21T13:11:32.764Z,18.90
2023-04-21T13:14:04.107Z,19.10
2023-04-21T13:16:32.721Z,19.10
2023-04-21T13:19:00.883Z,19.00
2023-04-21T13:21:29.286Z,19.20
2023-04-21T13:23:57.460Z,19.20
2023-04-21T13:26:25.884Z,19.60
2023-04-21T13:28:54.081Z,19.20
2023-04-21T13:31:23.762Z,19.10
2023-04-21T13:33:53.775Z,19.60
2023-04-21T13:36:23.204Z,22.20
2023-04-21T13:38:53.978Z,19.40
2023-04-21T13:41:22.220Z,19.20
2023-04-21T13:43:50.417Z,19.30
2023-04-21T13:46:18.692Z,19.40
2023-04-21T13:48:48.312Z,19.70
2023-04-21T13:51:16.514Z,19.70
2023-04-21T13:53:44.633Z,19.40
2023-04-21T13:56:14.090Z,19.00
2023-04-21T13:58:42.740Z,18.90
2023-04-21T14:01:11.259Z,18.70
2023-04-21T14:03:39.720Z,18.70
2023-04-21T14:06:10.082Z,19.00
2023-04-21T14:08:38.309Z,19.00
2023-04-21T14:11:09.783Z,19.20
2023-04-21T14:13:47.853Z,18.30
2023-04-21T14:16:26.477Z,19.20
2023-04-21T14:18:54.755Z,19.10
2023-04-21T14:21:24.369Z,19.40
2023-04-21T14:23:52.557Z,19.00
2023-04-21T14:26:21.779Z,18.90
2023-04-21T14:28:50.928Z,19.00
2023-04-21T14:31:21.638Z,19.00
2023-04-21T14:33:50.432Z,19.10
2023-04-21T14:36:18.667Z,19.30
2023-04-21T14:38:48.707Z,18.70
2023-04-21T14:41:19.909Z,19.00
2023-04-21T14:43:49.839Z,19.10
2023-04-21T14:46:18.776Z,19.20
2023-04-21T14:48:47.337Z,19.20
2023-04-21T14:51:15.604Z,19.20
2023-04-21T14:53:43.825Z,19.00
2023-04-21T14:56:13.348Z,19.10
2023-04-21T14:58:41.554Z,19.10
2023-04-21T15:01:10.671Z,19.20
2023-04-21T15:03:39.206Z,19.20
2023-04-21T15:06:07.803Z,19.10
2023-04-21T15:08:36.157Z,19.30
2023-04-21T15:11:05.178Z,19.10
2023-04-21T15:13:35.079Z,19.10
2023-04-21T15:16:03.343Z,19.10
2023-04-21T15:18:31.519Z,19.20
2023-04-21T15:20:59.607Z,19.40
2023-04-21T15:23:29.213Z,19.30
2023-04-21T15:25:58.075Z,19.30
2023-04-21T15:28:26.641Z,19.30
2023-04-21T15:30:56.432Z,19.40
2023-04-21T15:33:24.712Z,19.50
2023-04-21T15:35:52.958Z,19.50
2023-04-21T15:38:21.975Z,19.40
2023-04-21T15:41:00.255Z,19.30
2023-04-21T15:43:30.216Z,19.30
2023-04-21T15:45:59.946Z,19.40
2023-04-21T15:48:28.244Z,19.30
2023-04-21T15:50:57.757Z,19.30
2023-04-21T15:53:26.312Z,19.20
2023-04-21T15:55:54.567Z,19.10
2023-04-21T15:58:22.849Z,19.10
2023-04-21T16:00:51.113Z,19.00
2023-04-21T16:03:21.628Z,18.90
2023-04-21T16:05:50.621Z,18.80
2023-04-21T16:08:19.068Z,18.80
2023-04-21T16:10:47.285Z,18.40
2023-04-21T16:13:15.652Z,18.70
2023-04-21T16:15:43.892Z,18.60
2023-04-21T16:18:12.428Z,18.60
2023-04-21T16:20:43.714Z,18.60
2023-04-21T16:23:12.041Z,18.60
2023-04-21T16:25:40.341Z,18.40
2023-04-21T16:28:09.433Z,18.30
2023-04-21T16:30:38.582Z,17.90
2023-04-21T16:33:07.191Z,18.30
2023-04-21T16:35:36.113Z,18.20
2023-04-21T16:38:06.140Z,18.10
2023-04-21T16:40:34.716Z,18.00
2023-04-21T16:45:31.836Z,17.80
2023-04-21T16:48:00.200Z,18.00
2023-04-21T16:50:28.527Z,17.60
2023-04-21T16:52:56.889Z,17.50
2023-04-21T16:55:26.426Z,17.70
2023-04-21T16:57:54.902Z,17.30
2023-04-21T17:02:51.926Z,17.40
2023-04-21T17:05:20.199Z,17.20
2023-04-21T17:07:48.450Z,17.10
2023-04-21T17:10:16.608Z,16.90
2023-04-21T17:12:46.375Z,16.80
2023-04-21T17:15:14.653Z,16.80
2023-04-21T17:17:44.936Z,16.70
2023-04-21T17:20:15.095Z,16.50
2023-04-21T17:22:44.059Z,16.70
2023-04-21T17:25:12.725Z,16.40
2023-04-21T17:27:41.708Z,16.30
2023-04-21T17:30:12.863Z,16.10
2023-04-21T17:32:41.621Z,16.00
2023-04-21T17:35:10.460Z,16.00
2023-04-21T17:37:38.838Z,15.90
2023-04-21T17:40:09.587Z,15.90
2023-04-21T17:42:37.950Z,15.90
2023-04-21T17:45:08.570Z,15.60
2023-04-21T17:47:38.228Z,15.40
2023-04-21T17:50:08.867Z,15.40
2023-04-21T17:52:37.108Z,15.30
2023-04-21T17:55:05.701Z,15.30
2023-04-21T17:57:34.017Z,15.10
2023-04-21T18:00:07.107Z,15.10
2023-04-21T18:02:35.452Z,15.10
2023-04-21T18:05:05.761Z,15.10
2023-04-21T18:07:34.086Z,14.90
2023-04-21T18:10:02.222Z,14.80
2023-04-21T18:12:30.813Z,14.80
2023-04-21T18:14:59.006Z,14.90
2023-04-21T18:17:27.447Z,14.70
2023-04-21T18:19:55.775Z,14.70
2023-04-21T18:22:26.095Z,14.70
2023-04-21T18:24:54.324Z,14.60
2023-04-21T18:27:22.575Z,14.50
2023-04-21T18:29:51.335Z,14.50
2023-04-21T18:32:19.609Z,14.30
2023-04-21T18:34:47.910Z,14.50
2023-04-21T18:37:16.320Z,14.40
2023-04-21T18:39:46.107Z,13.80
2023-04-21T18:42:14.339Z,14.20
2023-04-21T18:44:42.612Z,14.20
2023-04-21T18:47:12.042Z,14.20
2023-04-21T18:49:41.028Z,14.20
2023-04-21T18:52:09.327Z,14.10
2023-04-21T18:54:38.036Z,13.80
2023-04-21T18:57:08.684Z,13.60
2023-04-21T18:59:37.262Z,13.60
2023-04-21T19:02:07.435Z,13.40
2023-04-21T19:04:36.258Z,13.60
2023-04-21T19:07:08.347Z,13.30
2023-04-21T19:09:36.683Z,13.10
2023-04-21T19:14:46.103Z,13.50
2023-04-21T19:19:44.077Z,12.80
2023-04-21T19:27:09.539Z,13.20
2023-04-21T19:29:39.248Z,13.20
2023-04-21T19:32:08.146Z,13.20
2023-04-21T19:34:36.518Z,13.20
2023-04-21T19:42:02.724Z,13.00
2023-04-21T19:47:01.306Z,13.20
2023-04-21T19:49:30.216Z,13.30
2023-04-21T19:54:27.012Z,13.30
2023-04-21T19:56:57.056Z,13.30
2023-04-21T19:59:25.382Z,13.20
2023-04-21T20:01:53.805Z,13.20
2023-04-21T20:04:23.739Z,13.00
2023-04-21T20:09:21.017Z,13.20
2023-04-21T20:11:49.507Z,13.10
2023-04-21T20:14:18.930Z,13.10
2023-04-21T20:16:50.052Z,13.00
2023-04-21T20:19:18.409Z,13.20
2023-04-21T20:21:50.866Z,13.20
2023-04-21T20:29:19.343Z,13.10
2023-04-21T20:31:47.811Z,13.00
2023-04-21T20:36:48.584Z,12.90
2023-04-21T20:39:18.931Z,12.80
2023-04-21T20:41:51.036Z,12.50
2023-04-21T20:44:32.739Z,12.80
2023-04-21T20:47:01.767Z,12.90
2023-04-21T20:49:30.144Z,12.90
2023-04-21T20:52:00.675Z,12.70
2023-04-21T20:54:28.973Z,12.60
2023-04-21T20:56:57.207Z,12.60
2023-04-21T20:59:25.384Z,12.70
2023-04-21T21:01:53.543Z,12.60
2023-04-21T21:04:21.939Z,12.60
2023-04-21T21:06:50.367Z,12.60
2023-04-21T21:09:20.649Z,12.60
2023-04-21T21:11:48.996Z,12.70
2023-04-21T21:16:45.859Z,12.60
2023-04-21T21:19:14.168Z,12.50
2023-04-21T21:21:42.397Z,12.60
2023-04-21T21:24:10.525Z,12.50
2023-04-21T21:26:42.688Z,12.20
2023-04-21T21:29:11.220Z,12.20
2023-04-21T21:31:39.500Z,12.10
2023-04-21T21:36:36.487Z,12.00
2023-04-21T21:39:07.745Z,12.00
2023-04-21T21:41:37.260Z,12.00
2023-04-21T21:44:07.777Z,11.80
2023-04-21T21:46:36.444Z,11.80
2023-04-21T21:49:04.800Z,11.70
2023-04-21T21:51:33.089Z,11.70
2023-04-21T21:54:01.241Z,12.00
2023-04-21T21:56:29.532Z,11.70
2023-04-21T21:58:57.717Z,11.60
2023-04-21T22:01:27.483Z,11.60
2023-04-21T22:03:56.544Z,11.70
2023-04-21T22:06:27.756Z,11.70
2023-04-21T22:08:56.082Z,11.60
2023-04-21T22:11:24.206Z,11.60
2023-04-21T22:13:52.559Z,11.20
2023-04-21T22:18:50.957Z,11.40
2023-04-21T22:23:48.834Z,11.40
2023-04-21T22:26:17.008Z,11.30
2023-04-21T22:28:49.860Z,11.70
2023-04-21T22:33:46.899Z,11.20
2023-04-21T22:36:16.695Z,11.20
2023-04-21T22:38:45.826Z,11.20
2023-04-21T22:41:14.113Z,11.20
2023-04-21T22:43:42.419Z,11.20
2023-04-21T22:46:10.720Z,11.00
2023-04-21T22:48:38.862Z,11.10
2023-04-21T22:51:08.210Z,11.10
2023-04-21T22:53:37.817Z,11.00
2023-04-21T22:56:06.618Z,10.90
2023-04-21T22:58:34.798Z,10.80
2023-04-21T23:01:03.303Z,10.60
2023-04-21T23:03:31.714Z,10.70
2023-04-21T23:06:00.116Z,10.60
2023-04-21T23:08:28.412Z,10.40
2023-04-21T23:10:58.245Z,10.90
2023-04-21T23:13:26.664Z,10.80
2023-04-21T23:15:54.878Z,11.00
2023-04-21T23:18:22.951Z,10.90
2023-04-21T23:20:51.188Z,10.80
2023-04-21T23:23:19.570Z,10.80
2023-04-21T23:25:47.874Z,10.90
2023-04-21T23:28:17.355Z,10.80
2023-04-21T23:30:45.734Z,10.80
2023-04-21T23:33:13.917Z,10.70
2023-04-21T23:35:42.180Z,10.40
2023-04-21T23:38:10.369Z,10.60
2023-04-21T23:40:38.841Z,10.70
2023-04-21T23:43:06.987Z,10.70
2023-04-21T23:45:36.630Z,10.60
2023-04-21T23:48:04.922Z,10.70
2023-04-21T23:50:33.714Z,10.60
2023-04-21T23:53:02.081Z,10.60
2023-04-21T23:55:30.329Z,10.40
2023-04-21T23:57:58.518Z,10.40
